aviador You're here:

YBWX Decoded Metar

in
Report Time2017-08-22 11:00:00
UTC Time2017-08-22 11:14:16
Flight Rules unknown UNKNOWN
Wind230° at 10 kt
W.Decomp.*RWY 21: 9.4 kt HW 3.4 kt RCW
W.Rank230° ranks 3
Current wind is below 230° avg. (12.0)
VisibilityN/A
Phenomena:N/A
Clouds:N/A
Expected CloudBase > 2,000 ft AGL from Temp-Dew spread
CeilingNone
Temp22°C
Dew Point17°C (73% RH)
AAT20.8°C
QNH1016 hPa
Raw Report
METAR YBWX 221100Z AUTO 23010KT //// // ////// 22/17 Q1016=

Extra information for YBWX:More info

Social comments